Time;durP1;ratioP1;P1;durP2;ratioP2;P2;SDS_P1;SDS_P2;PMS_P1;PMS_P2;Temp;Humidity;BMP_temperature;BMP_pressure;BME280_temperature;BME280_humidity;BME280_pressure;Samples;Min_cycle;Max_cycle;Signal;HPM_P1;HPM_P2
2021/01/12 00:04:28;;;;;;;10.50;6.30;;;0.70;99.90;;;1.25;100.00;98067.94;5009693;28;20453;-82
2021/01/12 00:06:57;;;;;;;16.17;7.70;;;0.70;99.90;;;1.27;100.00;98058.34;5000513;28;20462;-82
2021/01/12 00:09:26;;;;;;;14.20;7.13;;;0.80;99.90;;;1.25;100.00;98049.91;4998654;28;20585;-81
2021/01/12 00:11:55;;;;;;;12.87;7.10;;;0.80;99.90;;;1.30;100.00;98044.38;5004242;28;21077;-82
2021/01/12 00:14:32;;;;;;;12.10;6.97;;;0.80;99.90;;;1.30;100.00;98034.09;5002846;28;20477;-82
2021/01/12 00:17:03;;;;;;;10.40;5.50;;;0.90;99.90;;;1.30;100.00;98046.97;5003165;28;20478;-82
2021/01/12 00:19:33;;;;;;;14.20;8.47;;;0.90;99.90;;;1.29;100.00;98028.13;5004683;28;21263;-81
2021/01/12 00:22:04;;;;;;;15.43;7.10;;;0.80;99.90;;;1.26;100.00;98036.09;5004917;28;20903;-82
2021/01/12 00:24:33;;;;;;;13.47;6.90;;;0.70;99.90;;;1.30;100.00;98024.59;5003080;28;20977;-82
2021/01/12 00:27:01;;;;;;;10.47;6.33;;;0.80;99.90;;;1.35;100.00;98025.03;5003354;28;20462;-82
2021/01/12 00:29:29;;;;;;;20.70;7.47;;;0.90;99.90;;;1.33;100.00;98044.94;5002757;28;20517;-82
2021/01/12 00:31:58;;;;;;;11.40;7.10;;;0.90;99.90;;;1.32;100.00;98032.22;5004632;28;20593;-82
2021/01/12 00:34:26;;;;;;;10.17;5.33;;;0.80;99.90;;;1.33;100.00;98024.34;5003466;28;20466;-82
2021/01/12 00:36:54;;;;;;;9.90;6.10;;;0.90;99.90;;;1.33;100.00;98021.75;5002443;28;20979;-83
2021/01/12 00:39:23;;;;;;;14.30;7.70;;;0.90;99.90;;;1.35;100.00;98012.16;5003452;28;20478;-82
2021/01/12 00:41:56;;;;;;;15.03;7.53;;;0.90;99.90;;;1.31;100.00;98010.78;5003801;28;20499;-82
2021/01/12 00:44:24;;;;;;;11.03;6.47;;;0.90;99.90;;;1.30;100.00;98008.34;5002504;28;21038;-81
2021/01/12 00:46:54;;;;;;;9.47;6.20;;;0.80;99.90;;;1.36;100.00;98008.63;5000625;28;20476;-82
2021/01/12 00:49:24;;;;;;;11.47;6.57;;;0.90;99.90;;;1.38;100.00;98001.59;4999908;28;20471;-82
2021/01/12 00:51:53;;;;;;;13.37;6.60;;;0.90;99.90;;;1.38;100.00;97998.19;5003480;28;20853;-82
2021/01/12 00:54:25;;;;;;;14.83;6.80;;;0.90;99.90;;;1.41;100.00;97996.19;5003976;28;20960;-82
2021/01/12 00:56:55;;;;;;;10.50;6.67;;;1.00;99.90;;;1.41;100.00;97997.94;5003220;28;20476;-82
2021/01/12 00:59:23;;;;;;;11.67;6.20;;;1.00;99.90;;;1.39;100.00;97990.31;5002282;28;20475;-82
2021/01/12 01:01:51;;;;;;;12.17;6.20;;;0.90;99.90;;;1.43;100.00;97989.13;5001992;28;20516;-82
2021/01/12 01:04:19;;;;;;;11.80;7.27;;;1.00;99.90;;;1.41;100.00;97988.44;4999574;28;20978;-81
2021/01/12 01:06:48;;;;;;;10.87;6.10;;;0.90;99.90;;;1.41;100.00;97982.47;5002590;28;20471;-81
2021/01/12 01:09:16;;;;;;;10.73;6.57;;;1.00;99.90;;;1.39;100.00;97982.59;5001282;28;20466;-82
2021/01/12 01:11:46;;;;;;;9.50;5.87;;;0.90;99.90;;;1.40;100.00;97971.34;5002765;28;20496;-82
2021/01/12 01:14:16;;;;;;;13.53;6.73;;;0.80;99.90;;;1.42;100.00;97971.25;5001609;28;20831;-82
2021/01/12 01:16:44;;;;;;;10.90;6.47;;;0.90;99.90;;;1.41;100.00;97970.41;5000361;28;20475;-82
2021/01/12 01:19:13;;;;;;;9.20;6.03;;;0.90;99.90;;;1.46;100.00;97952.78;4999526;28;20525;-82
2021/01/12 01:21:40;;;;;;;12.90;7.07;;;1.00;99.90;;;1.44;100.00;97954.69;5002215;28;20597;-82
2021/01/12 01:24:09;;;;;;;8.83;5.73;;;1.00;99.90;;;1.49;100.00;97952.53;5002608;28;20471;-82
2021/01/12 01:26:37;;;;;;;8.97;6.00;;;1.00;99.90;;;1.44;100.00;97949.53;5001369;28;20497;-82
2021/01/12 01:29:05;;;;;;;13.23;5.70;;;0.90;99.90;;;1.48;100.00;97945.75;5002801;28;20522;-82
2021/01/12 01:31:38;;;;;;;9.03;5.90;;;1.00;99.90;;;1.48;100.00;97945.75;5002521;28;20459;-82
2021/01/12 01:34:06;;;;;;;11.77;5.93;;;1.00;99.90;;;1.52;100.00;97941.97;5001498;28;20948;-82
2021/01/12 01:36:34;;;;;;;8.07;5.10;;;1.10;99.90;;;1.48;100.00;97935.47;5000090;28;20482;-81
2021/01/12 01:39:03;;;;;;;6.67;4.50;;;1.00;99.90;;;1.45;100.00;97945.22;5001253;28;20479;-82
2021/01/12 01:41:31;;;;;;;7.10;5.30;;;1.00;99.90;;;1.50;100.00;97936.13;5002823;28;20495;-82
2021/01/12 01:44:03;;;;;;;8.83;4.93;;;1.10;99.90;;;1.51;100.00;97932.63;5001165;28;20503;-82
2021/01/12 01:46:31;;;;;;;8.97;5.17;;;1.10;99.90;;;1.56;100.00;97939.13;5002213;28;20983;-81
2021/01/12 01:49:01;;;;;;;7.50;4.50;;;1.10;99.90;;;1.58;100.00;97932.88;5002689;28;20505;-81
2021/01/12 01:51:30;;;;;;;9.20;5.47;;;1.20;99.90;;;1.56;100.00;97937.38;5001549;28;20474;-82
2021/01/12 01:53:58;;;;;;;4.67;3.60;;;1.20;99.90;;;1.58;100.00;97940.63;5001514;28;20467;-81
2021/01/12 01:56:27;;;;;;;8.57;4.80;;;1.10;99.90;;;1.56;100.00;97937.38;4997419;28;20489;-81
2021/01/12 01:58:54;;;;;;;7.57;5.60;;;1.10;99.90;;;1.56;100.00;97931.41;5001543;28;20844;-81
2021/01/12 02:01:22;;;;;;;6.73;4.63;;;1.10;99.90;;;1.57;100.00;97930.44;5002227;28;20809;-81
2021/01/12 02:04:05;;;;;;;6.97;3.70;;;1.10;99.90;;;1.60;100.00;97922.47;5002259;28;20835;-81
2021/01/12 02:06:36;;;;;;;6.53;3.67;;;1.10;99.90;;;1.64;100.00;97923.81;5002288;28;20963;-81
2021/01/12 02:09:12;;;;;;;4.80;2.90;;;1.20;99.90;;;1.61;100.00;97929.22;5000312;28;21010;-82
2021/01/12 02:11:43;;;;;;;8.83;4.70;;;1.20;99.90;;;1.62;100.00;97920.56;5003416;28;20477;-81
2021/01/12 02:14:15;;;;;;;6.00;4.10;;;1.20;99.90;;;1.63;100.00;97912.72;5001047;28;20467;-81
2021/01/12 02:16:45;;;;;;;10.70;5.40;;;1.20;99.90;;;1.64;100.00;97910.91;5002643;28;20475;-81
2021/01/12 02:19:21;;;;;;;7.50;4.27;;;1.20;99.90;;;1.65;100.00;97904.81;5000493;28;20471;-81
2021/01/12 02:21:54;;;;;;;9.10;4.53;;;1.30;99.90;;;1.66;100.00;97902.13;5001689;28;20466;-81
2021/01/12 02:24:23;;;;;;;5.23;4.00;;;1.20;99.90;;;1.63;100.00;97893.84;5000865;28;20458;-81
2021/01/12 02:26:50;;;;;;;5.13;3.90;;;1.20;99.90;;;1.61;100.00;97890.56;4999876;28;20468;-81
2021/01/12 02:29:18;;;;;;;6.30;4.07;;;1.10;99.90;;;1.64;100.00;97878.25;5000045;28;20492;-81
2021/01/12 02:31:46;;;;;;;5.57;3.40;;;1.20;99.90;;;1.65;100.00;97881.63;5001517;28;20470;-81
2021/01/12 02:34:18;;;;;;;10.00;4.23;;;1.30;99.90;;;1.64;100.00;97867.13;5001535;28;20961;-82
2021/01/12 02:36:47;;;;;;;5.23;3.37;;;1.20;99.90;;;1.64;100.00;97867.13;5000801;28;20467;-81
2021/01/12 02:39:15;;;;;;;6.63;4.00;;;1.10;99.90;;;1.69;100.00;97864.97;5000818;28;20536;-82
2021/01/12 02:41:44;;;;;;;6.63;4.50;;;1.20;99.90;;;1.67;100.00;97853.94;4997865;28;20466;-81
2021/01/12 02:44:22;;;;;;;5.77;4.10;;;1.10;99.90;;;1.67;100.00;97851.38;4999794;28;20522;-82
2021/01/12 02:46:50;;;;;;;3.97;3.47;;;1.20;99.90;;;1.68;100.00;97847.84;5000090;28;20472;-82
2021/01/12 02:49:18;;;;;;;6.60;4.07;;;1.20;99.90;;;1.71;100.00;97845.81;5000329;28;20509;-81
2021/01/12 02:51:45;;;;;;;5.50;4.20;;;1.30;99.90;;;1.71;100.00;97837.28;5001605;28;20990;-81
2021/01/12 02:54:13;;;;;;;6.03;4.23;;;1.30;99.90;;;1.74;100.00;97829.28;5000878;28;20479;-81
2021/01/12 02:56:40;;;;;;;4.33;3.53;;;1.30;99.90;;;1.74;100.00;97826.69;5000006;28;20498;-81
2021/01/12 02:59:09;;;;;;;4.77;3.47;;;1.30;99.90;;;1.71;100.00;97826.97;5001383;28;20981;-82
2021/01/12 03:01:36;;;;;;;6.60;4.60;;;1.20;99.90;;;1.73;100.00;97817.34;5000581;28;20544;-81
2021/01/12 03:04:04;;;;;;;4.53;3.53;;;1.30;99.90;;;1.73;100.00;97819.94;4999651;28;20487;-81
2021/01/12 03:06:32;;;;;;;8.60;4.63;;;1.30;99.90;;;1.74;100.00;97811.22;5000225;28;20464;-81
2021/01/12 03:09:00;;;;;;;6.43;4.60;;;1.30;99.90;;;1.74;100.00;97814.63;5001495;28;20459;-81
2021/01/12 03:11:27;;;;;;;5.30;3.77;;;1.30;99.90;;;1.76;100.00;97815.31;5000779;28;20455;-81
2021/01/12 03:13:54;;;;;;;5.80;3.77;;;1.30;99.90;;;1.75;100.00;97818.84;5001003;28;20504;-82
2021/01/12 03:16:23;;;;;;;5.83;2.80;;;1.30;99.90;;;1.73;100.00;97796.75;4999905;28;20463;-81
2021/01/12 03:18:51;;;;;;;5.17;3.93;;;1.20;99.90;;;1.74;100.00;97785.47;4999915;28;21087;-81
2021/01/12 03:21:18;;;;;;;4.60;3.63;;;1.20;99.90;;;1.77;100.00;97785.22;5001929;28;20483;-82
2021/01/12 03:23:46;;;;;;;7.00;3.03;;;1.30;99.90;;;1.82;100.00;97778.69;5000851;28;21003;-82
2021/01/12 03:26:14;;;;;;;3.90;2.70;;;1.40;99.90;;;1.77;100.00;97786.00;5000911;28;20474;-82
2021/01/12 03:28:41;;;;;;;3.83;3.07;;;1.30;99.90;;;1.79;100.00;97776.38;4993450;28;20545;-81
2021/01/12 03:31:09;;;;;;;3.60;3.03;;;1.30;99.90;;;1.81;100.00;97777.03;4999708;28;20478;-81
2021/01/12 03:33:37;;;;;;;4.67;3.20;;;1.40;99.90;;;1.80;100.00;97766.88;5000355;28;20490;-81
2021/01/12 03:36:05;;;;;;;3.97;2.60;;;1.40;99.90;;;1.85;100.00;97767.25;4999348;28;20470;-82
2021/01/12 03:38:33;;;;;;;3.20;2.70;;;1.40;99.90;;;1.84;100.00;97765.66;4999999;28;20470;-82
2021/01/12 03:41:01;;;;;;;2.87;2.33;;;1.40;99.90;;;1.79;100.00;97752.38;4999971;28;20529;-81
2021/01/12 03:43:28;;;;;;;2.77;2.20;;;1.30;99.90;;;1.82;100.00;97752.91;4999170;28;20467;-82
2021/01/12 03:45:55;;;;;;;3.50;2.40;;;1.40;99.90;;;1.83;100.00;97753.72;4997932;28;20934;-81
2021/01/12 03:48:23;;;;;;;2.53;2.30;;;1.40;99.90;;;1.79;100.00;97742.88;5000824;28;20455;-83
2021/01/12 03:50:51;;;;;;;3.73;2.47;;;1.30;99.90;;;1.83;100.00;97738.25;5000449;28;20471;-82
2021/01/12 03:53:19;;;;;;;2.50;2.00;;;1.30;99.90;;;1.85;100.00;97741.50;5000648;28;20499;-82
2021/01/12 03:55:47;;;;;;;3.17;2.40;;;1.40;99.90;;;1.84;100.00;97739.88;4994042;28;20471;-82
2021/01/12 03:58:14;;;;;;;2.20;1.93;;;1.40;99.90;;;1.87;100.00;97729.28;5000095;28;20486;-82
2021/01/12 04:00:42;;;;;;;1.70;1.60;;;1.50;99.90;;;1.85;100.00;97716.53;4997892;28;20469;-82
2021/01/12 04:03:09;;;;;;;2.43;2.23;;;1.40;99.90;;;1.89;100.00;97717.06;4998328;28;20983;-82
2021/01/12 04:05:39;;;;;;;1.57;1.43;;;1.40;99.90;;;1.87;100.00;97718.97;5000153;28;20979;-82
2021/01/12 04:08:11;;;;;;;1.50;1.40;;;1.40;99.90;;;1.87;100.00;97704.34;5000552;28;20525;-82
2021/01/12 04:10:39;;;;;;;1.53;1.40;;;1.50;99.90;;;1.88;100.00;97712.84;4997510;28;20483;-82
2021/01/12 04:13:06;;;;;;;1.57;1.47;;;1.50;99.90;;;1.89;100.00;97697.25;5000404;28;20995;-82
2021/01/12 04:15:34;;;;;;;1.43;1.33;;;1.50;99.90;;;1.90;100.00;97706.63;4998154;28;20475;-82
2021/01/12 04:18:02;;;;;;;1.63;1.40;;;1.50;99.90;;;1.87;100.00;97708.66;4999082;28;21257;-82
2021/01/12 04:20:29;;;;;;;2.00;1.47;;;1.40;99.90;;;1.88;100.00;97692.22;4999088;28;20464;-82
2021/01/12 04:22:57;;;;;;;1.40;1.30;;;1.50;99.90;;;1.89;100.00;97696.44;5000406;28;20471;-82
2021/01/12 04:25:25;;;;;;;1.30;1.20;;;1.50;99.90;;;1.91;100.00;97684.22;4997482;28;20796;-81
2021/01/12 04:27:53;;;;;;;6.10;1.50;;;1.50;99.90;;;1.90;100.00;97682.59;4999349;28;20501;-82
2021/01/12 04:30:21;;;;;;;1.50;1.33;;;1.50;99.90;;;1.88;100.00;97679.34;4999496;28;20466;-81
2021/01/12 04:32:49;;;;;;;1.20;1.10;;;1.40;99.90;;;1.92;100.00;97675.53;4996960;28;21035;-82
2021/01/12 04:35:16;;;;;;;1.60;1.37;;;1.50;99.90;;;1.92;100.00;97675.53;4997896;28;20470;-82
2021/01/12 04:37:44;;;;;;;2.20;1.67;;;1.50;99.90;;;1.89;100.00;97670.66;5000233;28;20861;-82
2021/01/12 04:40:12;;;;;;;1.97;1.13;;;1.40;99.90;;;1.92;100.00;97670.38;4994283;28;20477;-81
2021/01/12 04:42:43;;;;;;;1.43;1.33;;;1.50;99.90;;;1.92;100.00;97662.66;4999413;28;20470;-79
2021/01/12 04:45:11;;;;;;;1.83;1.50;;;1.50;99.90;;;1.93;100.00;97656.53;4999588;28;20482;-81
2021/01/12 04:47:39;;;;;;;1.13;1.03;;;1.50;99.90;;;1.92;100.00;97658.31;4997743;28;20479;-82
2021/01/12 04:50:08;;;;;;;1.20;1.10;;;1.50;99.90;;;1.95;100.00;97650.28;4997750;28;20470;-82
2021/01/12 04:52:44;;;;;;;13.10;6.87;;;1.50;99.90;;;1.93;100.00;97646.22;4999298;28;20495;-82
2021/01/12 04:55:13;;;;;;;1.27;1.10;;;1.50;99.90;;;1.95;100.00;97639.97;4998434;28;20471;-83
2021/01/12 04:57:43;;;;;;;1.30;1.20;;;1.50;99.90;;;1.95;100.00;97646.88;5003856;28;20466;-82
2021/01/12 05:00:17;;;;;;;1.20;1.10;;;1.50;99.90;;;1.98;100.00;97638.88;5002506;28;20769;-83
2021/01/12 05:02:59;;;;;;;1.50;1.40;;;1.50;99.90;;;1.94;100.00;97645.28;5004139;28;20475;-82
2021/01/12 05:05:31;;;;;;;1.40;1.30;;;1.50;99.90;;;1.87;100.00;97631.34;5003356;28;20489;-82
2021/01/12 05:08:03;;;;;;;1.53;1.30;;;1.40;99.90;;;1.85;100.00;97628.09;5003900;28;21422;-82
2021/01/12 05:10:35;;;;;;;1.40;1.30;;;1.40;99.90;;;1.92;100.00;97634.28;5000830;28;20974;-84
2021/01/12 05:13:07;;;;;;;1.40;1.30;;;1.50;99.90;;;1.90;100.00;97616.41;5003950;28;20784;-81
2021/01/12 05:15:38;;;;;;;1.67;1.53;;;1.50;99.90;;;1.88;100.00;97618.28;5001305;28;20463;-82
2021/01/12 05:18:08;;;;;;;1.77;1.53;;;1.50;99.90;;;1.84;100.00;97608.44;5002513;28;20475;-80
2021/01/12 05:20:48;;;;;;;2.87;1.20;;;1.40;99.90;;;1.84;100.00;97616.16;5002487;28;20554;-81
2021/01/12 05:23:24;;;;;;;1.73;1.57;;;1.40;99.90;;;1.84;100.00;97611.81;5000940;28;20830;-82
2021/01/12 05:25:53;;;;;;;1.57;1.47;;;1.40;99.90;;;1.82;100.00;97613.72;5000251;28;20963;-80
2021/01/12 05:28:22;;;;;;;1.57;1.40;;;1.30;99.90;;;1.89;100.00;97613.97;5004990;28;20483;-83
2021/01/12 05:30:51;;;;;;;2.30;1.20;;;1.40;99.90;;;1.87;100.00;97606.38;5003107;28;20467;-83
2021/01/12 05:33:20;;;;;;;1.20;1.10;;;1.50;99.90;;;1.93;100.00;97599.84;5003154;28;20530;-82
2021/01/12 05:35:49;;;;;;;1.20;1.10;;;1.50;99.90;;;1.90;100.00;97600.13;5002635;28;20451;-82
2021/01/12 05:38:27;;;;;;;1.60;0.90;;;1.50;99.90;;;1.85;100.00;97595.38;5000296;28;20481;-82
2021/01/12 05:40:58;;;;;;;1.10;1.00;;;1.30;99.90;;;1.90;100.00;97595.78;5003078;28;20478;-81
2021/01/12 05:43:37;;;;;;;1.20;1.10;;;1.40;99.90;;;1.89;100.00;97589.00;5001230;28;20466;-81
2021/01/12 05:46:10;;;;;;;1.30;1.20;;;1.40;99.90;;;1.91;100.00;97597.38;4996322;28;20509;-81
2021/01/12 05:48:40;;;;;;;1.63;1.37;;;1.40;99.90;;;1.94;100.00;97596.31;5001846;28;20478;-81
2021/01/12 05:51:13;;;;;;;1.20;1.10;;;1.40;99.90;;;1.97;100.00;97575.41;5002202;28;20513;-81
2021/01/12 05:54:10;;;;;;;1.20;1.10;;;1.50;99.90;;;1.97;100.00;97565.91;5002686;28;20499;-81
2021/01/12 05:56:44;;;;;;;1.07;1.00;;;1.50;99.90;;;1.97;100.00;97570.25;5001574;28;20863;-81
2021/01/12 05:59:23;;;;;;;1.00;1.00;;;1.50;99.90;;;1.95;100.00;97561.81;4999645;28;20500;-81
2021/01/12 06:01:55;;;;;;;1.10;1.00;;;1.50;99.90;;;1.95;100.00;97564.41;5002670;28;20526;-82
2021/01/12 06:04:24;;;;;;;1.43;1.13;;;1.50;99.90;;;1.91;100.00;97550.19;4998064;28;20518;-82
2021/01/12 06:06:54;;;;;;;0.90;0.90;;;1.40;99.90;;;1.93;100.00;97548.28;5003134;28;20451;-82
2021/01/12 06:09:23;;;;;;;0.90;0.90;;;1.50;99.90;;;1.95;100.00;97547.16;5001895;28;20541;-82
2021/01/12 06:11:53;;;;;;;1.10;1.00;;;1.50;99.90;;;1.96;100.00;97547.97;5002422;28;20451;-82
2021/01/12 06:14:24;;;;;;;0.83;0.83;;;1.50;99.90;;;1.96;100.00;97558.28;5001979;28;21000;-82
2021/01/12 06:16:52;;;;;;;0.90;0.90;;;1.50;99.90;;;1.94;100.00;97547.34;5000008;28;20467;-82
2021/01/12 06:19:22;;;;;;;1.50;1.00;;;1.50;99.90;;;1.95;100.00;97536.03;5002429;28;20460;-82
2021/01/12 06:22:15;;;;;;;1.47;0.80;;;1.50;99.90;;;1.95;100.00;97533.47;5002519;28;20455;-82
2021/01/12 06:25:04;;;;;;;1.00;0.90;;;1.50;99.90;;;1.91;100.00;97542.44;4996884;28;20990;-82
2021/01/12 06:27:34;;;;;;;1.10;0.97;;;1.50;99.90;;;1.91;100.00;97542.44;5002158;28;20459;-82
2021/01/12 06:30:06;;;;;;;0.90;0.90;;;1.50;99.90;;;1.92;100.00;97541.50;5002244;28;20518;-82
2021/01/12 06:32:37;;;;;;;0.80;0.80;;;1.50;99.90;;;1.91;100.00;97530.38;5002428;28;21017;-82
2021/01/12 06:35:07;;;;;;;0.87;0.87;;;1.50;99.90;;;1.90;100.00;97530.53;5002224;28;20931;-82
2021/01/12 06:37:38;;;;;;;0.87;0.87;;;1.40;99.90;;;1.94;100.00;97539.59;5001732;28;20459;-82
2021/01/12 06:40:08;;;;;;;0.80;0.80;;;1.50;99.90;;;1.96;100.00;97535.09;5002907;28;20470;-82
2021/01/12 06:42:38;;;;;;;0.90;0.90;;;1.50;99.90;;;1.95;100.00;97538.63;5002926;28;20865;-82
2021/01/12 06:45:09;;;;;;;1.00;0.90;;;1.60;99.90;;;1.92;100.00;97533.75;5002306;28;20530;-82
2021/01/12 06:47:38;;;;;;;1.10;0.90;;;1.50;99.90;;;1.94;100.00;97534.44;5002762;28;20459;-82
2021/01/12 06:50:10;;;;;;;3.00;1.10;;;1.50;99.90;;;1.96;100.00;97537.66;4998887;28;20468;-82
2021/01/12 06:52:43;;;;;;;0.90;0.90;;;1.50;99.90;;;1.95;100.00;97530.88;5002294;28;21025;-82
2021/01/12 06:55:13;;;;;;;2.30;1.10;;;1.50;99.90;;;1.94;100.00;97524.13;5002108;28;20862;-81
2021/01/12 06:57:45;;;;;;;0.90;0.90;;;1.50;99.90;;;1.90;100.00;97515.88;5001671;28;20829;-82
2021/01/12 07:00:16;;;;;;;0.97;0.87;;;1.50;99.90;;;1.90;100.00;97509.91;5002168;28;20463;-83
2021/01/12 07:02:44;;;;;;;1.00;0.90;;;1.40;99.90;;;1.93;100.00;97530.22;5001283;28;20498;-81
2021/01/12 07:05:15;;;;;;;1.37;0.97;;;1.50;99.90;;;1.89;100.00;97511.66;5001108;28;20538;-82
2021/01/12 07:07:47;;;;;;;1.50;1.00;;;1.40;99.90;;;1.95;100.00;97515.41;5001608;28;20458;-82
2021/01/12 07:10:17;;;;;;;1.20;1.03;;;1.50;99.90;;;1.93;100.00;97512.19;5002073;28;20455;-82
2021/01/12 07:12:46;;;;;;;1.07;1.07;;;1.50;99.90;;;1.92;100.00;97508.78;5001530;28;20494;-82
2021/01/12 07:15:18;;;;;;;0.87;0.87;;;1.50;99.90;;;1.94;100.00;97509.44;5001472;28;20466;-81
2021/01/12 07:17:48;;;;;;;1.03;0.90;;;1.50;99.90;;;1.93;100.00;97512.19;5000579;28;20457;-81
2021/01/12 07:20:19;;;;;;;1.57;0.90;;;1.50;99.90;;;1.87;100.00;97508.44;4996923;28;20444;-82
2021/01/12 07:22:55;;;;;;;1.20;1.00;;;1.40;99.90;;;1.89;100.00;97509.09;5001274;28;20753;-82
2021/01/12 07:25:26;;;;;;;1.10;1.00;;;1.40;99.90;;;1.92;100.00;97495.91;5000942;28;20438;-82
2021/01/12 07:28:08;;;;;;;0.90;0.90;;;1.40;99.90;;;1.93;100.00;97500.13;5001096;28;20490;-81
2021/01/12 07:30:39;;;;;;;0.80;0.80;;;1.50;99.90;;;1.91;100.00;97498.63;5001294;28;20466;-82
2021/01/12 07:33:09;;;;;;;1.27;0.93;;;1.40;99.90;;;1.91;100.00;97506.34;5001040;28;20854;-82
2021/01/12 07:35:37;;;;;;;2.80;1.17;;;1.40;99.90;;;1.95;100.00;97497.38;5000985;28;20843;-82
2021/01/12 07:38:05;;;;;;;0.80;0.77;;;1.50;99.90;;;1.94;100.00;97493.97;5001105;28;20460;-82
2021/01/12 07:40:33;;;;;;;1.00;0.90;;;1.50;99.90;;;1.96;100.00;97491.28;5000544;28;20452;-81
2021/01/12 07:43:03;;;;;;;0.90;0.80;;;1.50;99.90;;;1.96;100.00;97493.84;5000768;28;20514;-82
2021/01/12 07:45:33;;;;;;;0.90;0.90;;;1.60;99.90;;;1.95;100.00;97499.94;4998981;28;20454;-82
2021/01/12 07:48:04;;;;;;;0.80;0.80;;;1.50;99.90;;;1.95;100.00;97500.78;5001314;28;20451;-82
2021/01/12 07:50:32;;;;;;;0.73;0.73;;;1.50;99.90;;;1.94;100.00;97493.19;4999978;28;20541;-81
2021/01/12 07:53:00;;;;;;;1.10;0.80;;;1.50;99.90;;;1.90;100.00;97484.94;5000925;28;20490;-81
2021/01/12 07:55:31;;;;;;;0.83;0.83;;;1.50;99.90;;;1.87;100.00;97489.59;4999845;28;20451;-82
2021/01/12 07:58:00;;;;;;;0.70;0.70;;;1.40;99.90;;;1.91;100.00;97483.97;5000765;28;20444;-81
2021/01/12 08:00:31;;;;;;;1.00;0.80;;;1.40;99.90;;;1.91;100.00;97483.97;5000746;28;20447;-82
2021/01/12 08:03:00;;;;;;;0.87;0.80;;;1.40;99.90;;;1.92;100.00;97489.94;5000685;28;20486;-82
2021/01/12 08:05:30;;;;;;;0.87;0.70;;;1.30;99.90;;;1.97;100.00;97483.41;4997637;28;20456;-82
2021/01/12 08:08:02;;;;;;;1.03;0.83;;;1.50;99.90;;;1.98;100.00;97481.63;5000909;28;20837;-81
2021/01/12 08:10:31;;;;;;;1.73;1.17;;;1.50;99.90;;;1.97;100.00;97475.66;4998990;28;20451;-82
2021/01/12 08:13:10;;;;;;;0.80;0.80;;;1.40;99.90;;;2.01;100.00;97471.03;5000447;28;20494;-81
2021/01/12 08:15:41;;;;;;;1.00;0.90;;;1.50;99.90;;;1.98;100.00;97472.13;5000570;28;20458;-82
2021/01/12 08:18:12;;;;;;;0.90;0.73;;;1.40;99.90;;;2.01;100.00;97474.41;5000285;28;20459;-82
2021/01/12 08:20:41;;;;;;;0.83;0.80;;;1.50;99.90;;;2.03;100.00;97477.66;5000317;28;20455;-81
2021/01/12 08:23:11;;;;;;;0.80;0.80;;;1.60;99.90;;;2.03;100.00;97476.84;5000700;28;20474;-81
2021/01/12 08:25:39;;;;;;;0.70;0.70;;;1.60;99.90;;;2.00;100.00;97472.78;5000566;28;20447;-82
2021/01/12 08:28:10;;;;;;;0.87;0.87;;;1.50;99.90;;;1.99;100.00;97476.31;4997150;28;20478;-82
2021/01/12 08:30:40;;;;;;;1.03;0.80;;;1.50;99.90;;;1.99;100.00;97476.31;5000499;28;20451;-82
2021/01/12 08:33:13;;;;;;;0.87;0.87;;;1.50;99.90;;;1.99;100.00;97476.31;5004418;28;20490;-82
2021/01/12 08:35:51;;;;;;;0.70;0.70;;;1.60;99.90;;;2.06;100.00;97475.72;5004299;28;20829;-81
2021/01/12 08:38:23;;;;;;;1.97;0.77;;;1.60;99.90;;;2.06;100.00;97480.88;5003319;28;20450;-82
2021/01/12 08:40:54;;;;;;;1.30;1.00;;;1.60;99.90;;;2.05;100.00;97469.75;5004602;28;20447;-81
2021/01/12 08:43:29;;;;;;;0.83;0.80;;;1.60;99.90;;;2.08;100.00;97477.22;5004012;28;20455;-82
2021/01/12 08:46:00;;;;;;;0.97;0.87;;;1.70;99.90;;;2.10;100.00;97477.88;5004341;28;20462;-82
2021/01/12 08:48:29;;;;;;;0.80;0.80;;;1.70;99.90;;;2.07;100.00;97485.09;5003599;28;20528;-82
2021/01/12 08:50:58;;;;;;;0.80;0.80;;;1.70;99.90;;;2.08;100.00;97473.81;5004137;28;20447;-82
2021/01/12 08:53:31;;;;;;;0.67;0.60;;;1.70;99.90;;;2.08;100.00;97479.78;5003973;28;20514;-82
2021/01/12 08:56:05;;;;;;;0.90;0.80;;;1.70;99.90;;;2.09;100.00;97472.84;5003341;28;20963;-81
2021/01/12 08:58:33;;;;;;;1.07;0.80;;;1.70;99.90;;;2.08;100.00;97474.63;5002127;28;20509;-82
2021/01/12 09:01:03;;;;;;;1.00;0.70;;;1.70;99.90;;;2.10;100.00;97474.47;5003445;28;20460;-81
2021/01/12 09:03:32;;;;;;;0.83;0.83;;;1.70;99.90;;;2.11;100.00;97482.06;5002279;28;20908;-82
2021/01/12 09:06:01;;;;;;;0.70;0.70;;;1.70;99.90;;;2.09;100.00;97480.59;5003562;28;20439;-82
2021/01/12 09:08:29;;;;;;;0.70;0.70;;;1.60;99.90;;;2.06;100.00;97486.84;5002996;28;20974;-81
2021/01/12 09:11:05;;;;;;;0.77;0.70;;;1.60;99.90;;;2.16;100.00;97481.59;5004600;28;20549;-82
2021/01/12 09:13:35;;;;;;;0.70;0.70;;;1.70;99.90;;;2.15;100.00;97485.97;5003454;28;20498;-82
2021/01/12 09:16:03;;;;;;;0.70;0.70;;;1.60;99.90;;;2.12;100.00;97485.47;5004126;28;20845;-81
2021/01/12 09:18:36;;;;;;;0.70;0.70;;;1.70;99.90;;;2.15;100.00;97491.13;5001118;28;20509;-81
2021/01/12 09:21:07;;;;;;;0.80;0.70;;;1.70;99.90;;;2.15;100.00;97491.13;5003892;28;20538;-82
2021/01/12 09:23:38;;;;;;;0.93;0.83;;;1.70;99.90;;;2.18;100.00;97488.25;5001477;28;20563;-82
2021/01/12 09:26:05;;;;;;;0.80;0.70;;;1.70;99.90;;;2.21;100.00;97482.81;5003433;28;20455;-81
2021/01/12 09:28:37;;;;;;;0.70;0.70;;;1.80;99.90;;;2.23;100.00;97491.19;5003238;28;20486;-82
2021/01/12 09:31:08;;;;;;;1.00;0.80;;;1.80;99.90;;;2.26;100.00;97478.00;5003710;28;20531;-82
2021/01/12 09:33:37;;;;;;;0.80;0.80;;;1.80;99.90;;;2.26;100.00;97472.84;5002838;28;21034;-82
2021/01/12 09:36:10;;;;;;;0.80;0.80;;;1.80;99.90;;;2.31;100.00;97473.22;5003220;28;20503;-82
2021/01/12 09:38:40;;;;;;;2.10;0.67;;;1.80;99.90;;;2.30;100.00;97475.91;5003393;28;20546;-81
2021/01/12 09:41:10;;;;;;;1.83;0.80;;;1.90;99.90;;;2.26;100.00;97470.25;5003501;28;20920;-82
2021/01/12 09:43:40;;;;;;;1.13;0.80;;;1.80;99.90;;;2.25;100.00;97466.06;5001808;28;20467;-82
2021/01/12 09:46:09;;;;;;;1.97;1.00;;;1.70;99.90;;;2.29;100.00;97472.53;5000379;28;20467;-82
2021/01/12 09:48:39;;;;;;;0.87;0.80;;;1.80;99.90;;;2.34;100.00;97469.50;5002493;28;20817;-82
2021/01/12 09:51:11;;;;;;;0.70;0.60;;;1.90;99.90;;;2.35;100.00;97474.53;5001041;28;20461;-81
2021/01/12 09:53:39;;;;;;;0.70;0.70;;;2.00;99.90;;;2.35;100.00;97477.13;5002379;28;21034;-82
2021/01/12 09:56:10;;;;;;;1.60;1.27;;;2.00;99.90;;;2.33;100.00;97479.00;5000999;28;20513;-82
2021/01/12 09:58:39;;;;;;;1.00;0.90;;;1.90;99.90;;;2.36;100.00;97483.88;5002816;28;20462;-82
2021/01/12 10:01:06;;;;;;;1.00;0.90;;;1.90;99.90;;;2.35;100.00;97471.97;5002687;28;20554;-82
2021/01/12 10:03:34;;;;;;;1.47;0.93;;;1.90;99.90;;;2.38;100.00;97471.66;5002692;28;21006;-81
2021/01/12 10:06:02;;;;;;;1.00;0.90;;;2.00;99.90;;;2.37;100.00;97487.25;5002195;28;20459;-82
2021/01/12 10:08:32;;;;;;;1.00;0.90;;;1.80;99.90;;;2.43;100.00;97472.00;5002351;28;20471;-82
2021/01/12 10:11:03;;;;;;;1.00;0.90;;;1.90;99.90;;;2.43;100.00;97477.16;5002931;28;20486;-82
2021/01/12 10:13:31;;;;;;;0.90;0.90;;;1.90;99.90;;;2.44;100.00;97476.19;5002440;28;20589;-82
2021/01/12 10:16:00;;;;;;;0.83;0.83;;;1.90;99.90;;;2.45;100.00;97477.03;5002275;28;20466;-82
2021/01/12 10:18:28;;;;;;;0.70;0.70;;;1.90;99.90;;;2.48;100.00;97467.22;4999117;28;20869;-82
2021/01/12 10:20:55;;;;;;;0.93;0.80;;;2.00;99.90;;;2.49;100.00;97466.25;5001011;28;20535;-82
2021/01/12 10:23:23;;;;;;;0.97;0.90;;;2.00;99.90;;;2.51;100.00;97469.47;5002139;28;20474;-82
2021/01/12 10:25:52;;;;;;;1.70;1.00;;;2.00;99.90;;;2.53;100.00;97454.66;5002085;28;20448;-82
2021/01/12 10:28:21;;;;;;;0.90;0.90;;;2.10;99.90;;;2.58;100.00;97454.19;5001446;28;20483;-82
2021/01/12 10:30:48;;;;;;;0.80;0.70;;;2.20;99.90;;;2.61;100.00;97461.63;5001382;28;20543;-82
2021/01/12 10:33:16;;;;;;;0.90;0.90;;;2.20;99.90;;;2.55;100.00;97449.34;5002086;28;20545;-82
2021/01/12 10:36:00;;;;;;;1.03;0.90;;;2.00;99.90;;;2.62;100.00;97449.53;5001830;28;20447;-81
2021/01/12 10:38:29;;;;;;;1.13;0.97;;;2.20;99.90;;;2.65;100.00;97439.72;5001730;28;20452;-82
2021/01/12 10:40:58;;;;;;;0.80;0.80;;;2.20;99.90;;;2.61;100.00;97451.31;5001378;28;20952;-82